createdAt,value
2023-04-29T00:02:02.482Z,13.40
2023-04-29T00:05:44.860Z,6.60
2023-04-29T00:09:26.709Z,8.60
2023-04-29T00:13:08.686Z,10.73
2023-04-29T00:16:50.652Z,13.57
2023-04-29T00:20:32.852Z,6.88
2023-04-29T00:24:14.668Z,22.02
2023-04-29T00:28:00.001Z,7.18
2023-04-29T00:31:41.814Z,17.88
2023-04-29T00:35:23.631Z,7.22
2023-04-29T00:39:05.598Z,8.90
2023-04-29T00:42:47.414Z,7.03
2023-04-29T00:46:29.286Z,11.82
2023-04-29T00:50:11.395Z,11.93
2023-04-29T00:53:53.653Z,13.48
2023-04-29T00:57:35.766Z,15.77
2023-04-29T01:01:17.626Z,21.55
2023-04-29T01:04:59.491Z,14.05
2023-04-29T01:09:00.757Z,14.40
2023-04-29T01:13:01.908Z,13.15
2023-04-29T01:16:57.072Z,10.60
2023-04-29T01:20:39.966Z,10.85
2023-04-29T01:24:21.759Z,10.35
2023-04-29T01:28:21.815Z,12.18
2023-04-29T01:32:12.643Z,15.18
2023-04-29T01:36:18.285Z,12.18
2023-04-29T01:40:09.479Z,13.60
2023-04-29T01:43:52.731Z,14.13
2023-04-29T01:47:37.151Z,9.75
2023-04-29T01:51:18.944Z,8.73
2023-04-29T01:55:01.109Z,11.43
2023-04-29T01:58:42.906Z,14.73
2023-04-29T02:02:25.524Z,15.50
2023-04-29T02:06:07.357Z,10.75
2023-04-29T02:09:49.262Z,11.68
2023-04-29T02:13:31.874Z,10.00
2023-04-29T02:17:14.424Z,8.80
2023-04-29T02:21:02.010Z,9.50
2023-04-29T02:24:43.834Z,10.45
2023-04-29T02:28:25.733Z,8.68
2023-04-29T02:32:07.758Z,10.70
2023-04-29T02:35:49.612Z,9.48
2023-04-29T02:39:31.572Z,9.32
2023-04-29T02:43:13.555Z,13.20
2023-04-29T02:46:55.359Z,10.60
2023-04-29T02:50:37.228Z,9.05
2023-04-29T02:54:19.307Z,12.35
2023-04-29T02:58:01.309Z,12.13
2023-04-29T03:01:43.347Z,15.20
2023-04-29T03:05:25.338Z,12.68
2023-04-29T03:09:07.124Z,16.92
2023-04-29T03:12:48.968Z,9.63
2023-04-29T03:16:31.453Z,17.65
2023-04-29T03:20:13.422Z,9.15
2023-04-29T03:23:55.262Z,17.55
2023-04-29T03:27:37.201Z,14.40
2023-04-29T03:31:21.084Z,16.13
2023-04-29T03:35:03.326Z,10.85
2023-04-29T03:38:45.126Z,12.85
2023-04-29T03:42:26.984Z,17.05
2023-04-29T03:46:08.771Z,16.38
2023-04-29T03:49:50.895Z,12.55
2023-04-29T03:53:33.199Z,12.30
2023-04-29T03:57:14.999Z,10.82
2023-04-29T04:00:57.362Z,8.60
2023-04-29T04:04:40.805Z,9.52
2023-04-29T04:08:22.951Z,10.82
2023-04-29T04:12:05.185Z,11.63
2023-04-29T04:15:51.802Z,26.40
2023-04-29T04:19:33.751Z,15.88
2023-04-29T04:23:15.802Z,10.60
2023-04-29T04:26:57.583Z,8.73
2023-04-29T04:30:39.442Z,8.25
2023-04-29T04:34:21.298Z,10.70
2023-04-29T04:38:03.124Z,8.52
2023-04-29T04:41:44.935Z,10.80
2023-04-29T04:45:30.078Z,10.90
2023-04-29T04:49:11.965Z,7.40
2023-04-29T04:52:55.400Z,6.35
2023-04-29T04:56:37.892Z,8.35
2023-04-29T05:00:19.840Z,7.90
2023-04-29T05:04:02.942Z,7.60
2023-04-29T05:07:45.500Z,7.47
2023-04-29T05:11:27.352Z,7.18
2023-04-29T05:15:09.447Z,8.05
2023-04-29T05:18:51.255Z,7.05
2023-04-29T05:22:33.083Z,8.20
2023-04-29T05:26:14.942Z,7.30
2023-04-29T05:29:57.134Z,7.55
2023-04-29T05:33:38.901Z,6.90
2023-04-29T05:37:20.860Z,6.18
2023-04-29T05:41:03.724Z,6.10
2023-04-29T05:44:45.953Z,6.10
2023-04-29T05:48:28.448Z,6.90
2023-04-29T05:52:10.280Z,5.80
2023-04-29T05:55:52.066Z,7.68
2023-04-29T05:59:34.140Z,7.55
2023-04-29T06:03:16.885Z,9.93
2023-04-29T06:06:58.838Z,11.18
2023-04-29T06:10:41.221Z,7.35
2023-04-29T06:14:23.199Z,8.77
2023-04-29T06:18:05.081Z,8.90
2023-04-29T06:21:47.198Z,10.57
2023-04-29T06:25:28.951Z,18.52
2023-04-29T06:29:10.792Z,18.15
2023-04-29T06:32:53.612Z,15.45
2023-04-29T06:36:35.488Z,17.08
2023-04-29T06:40:17.361Z,17.35
2023-04-29T06:43:59.155Z,16.08
2023-04-29T06:47:40.962Z,14.23
2023-04-29T06:51:22.872Z,17.67
2023-04-29T06:55:05.184Z,18.10
2023-04-29T06:58:47.530Z,14.55
2023-04-29T07:02:29.540Z,14.85
2023-04-29T07:06:11.434Z,13.85
2023-04-29T07:09:54.603Z,13.52
2023-04-29T07:13:36.671Z,11.57
2023-04-29T07:17:18.881Z,12.27
2023-04-29T07:21:03.982Z,12.38
2023-04-29T07:24:45.796Z,12.32
2023-04-29T07:28:27.613Z,14.20
2023-04-29T07:32:09.406Z,12.68
2023-04-29T07:35:51.371Z,15.05
2023-04-29T07:39:33.210Z,15.77
2023-04-29T07:43:15.600Z,14.85
2023-04-29T07:46:57.405Z,13.77
2023-04-29T07:50:39.234Z,13.80
2023-04-29T07:54:22.415Z,15.13
2023-04-29T07:58:04.266Z,16.08
2023-04-29T08:01:46.775Z,14.95
2023-04-29T08:05:30.643Z,17.77
2023-04-29T08:09:12.731Z,17.40
2023-04-29T08:12:54.692Z,16.98
2023-04-29T08:16:36.622Z,17.70
2023-04-29T08:20:18.574Z,15.38
2023-04-29T08:24:00.824Z,20.13
2023-04-29T08:27:45.328Z,19.73
2023-04-29T08:31:27.219Z,20.48
2023-04-29T08:35:09.641Z,17.77
2023-04-29T08:38:52.918Z,18.50
2023-04-29T08:42:36.572Z,20.83
2023-04-29T08:46:19.249Z,20.10
2023-04-29T08:50:05.854Z,22.23
2023-04-29T08:53:47.792Z,18.88
2023-04-29T08:57:39.558Z,19.65
2023-04-29T09:01:23.123Z,20.25
2023-04-29T09:05:09.210Z,20.00
2023-04-29T09:08:51.331Z,22.05
2023-04-29T09:12:33.172Z,23.00
2023-04-29T09:16:15.031Z,23.05
2023-04-29T09:19:57.216Z,25.45
2023-04-29T09:23:39.198Z,28.55
2023-04-29T09:27:29.317Z,26.33
2023-04-29T09:31:14.648Z,25.63
2023-04-29T09:34:56.828Z,23.05
2023-04-29T09:38:55.231Z,26.25
2023-04-29T09:42:43.947Z,29.58
2023-04-29T09:46:25.975Z,27.30
2023-04-29T09:50:15.622Z,27.75
2023-04-29T09:53:57.441Z,26.95
2023-04-29T09:57:45.009Z,30.23
2023-04-29T10:01:28.057Z,27.52
2023-04-29T10:05:12.094Z,26.98
2023-04-29T10:08:54.026Z,27.17
2023-04-29T10:12:36.445Z,28.55
2023-04-29T10:16:31.525Z,27.73
2023-04-29T10:20:16.754Z,28.60
2023-04-29T10:23:59.798Z,25.15
2023-04-29T10:27:45.733Z,24.80
2023-04-29T10:31:28.208Z,24.23
2023-04-29T10:35:11.887Z,23.02
2023-04-29T10:38:57.320Z,29.40
2023-04-29T10:42:59.664Z,25.17
2023-04-29T10:46:41.636Z,29.73
2023-04-29T10:50:23.475Z,23.83
2023-04-29T10:54:16.103Z,26.13
2023-04-29T10:57:58.425Z,28.80
2023-04-29T11:01:47.876Z,27.25
2023-04-29T11:05:37.612Z,26.17
2023-04-29T11:09:21.752Z,28.15
2023-04-29T11:13:23.078Z,27.35
2023-04-29T11:17:15.915Z,24.50
2023-04-29T11:21:06.761Z,24.55
2023-04-29T11:25:02.999Z,25.80
2023-04-29T11:28:45.824Z,23.10
2023-04-29T11:32:32.349Z,27.67
2023-04-29T11:36:14.408Z,23.92
2023-04-29T11:40:01.367Z,20.40
2023-04-29T11:43:46.853Z,21.83
2023-04-29T11:47:29.768Z,19.80
2023-04-29T11:51:11.684Z,19.50
2023-04-29T11:54:53.616Z,18.38
2023-04-29T11:58:35.718Z,20.15
2023-04-29T12:02:17.579Z,18.58
2023-04-29T12:06:01.422Z,18.27
2023-04-29T12:09:47.293Z,17.27
2023-04-29T12:13:30.658Z,15.30
2023-04-29T12:17:13.376Z,17.70
2023-04-29T12:20:56.090Z,17.52
2023-04-29T12:24:39.264Z,18.75
2023-04-29T12:28:21.541Z,17.92
2023-04-29T12:32:03.777Z,16.10
2023-04-29T12:35:45.660Z,16.92
2023-04-29T12:39:28.089Z,22.90
2023-04-29T12:43:10.997Z,19.58
2023-04-29T12:46:53.945Z,18.13
2023-04-29T12:50:38.586Z,17.05
2023-04-29T12:54:20.638Z,17.77
2023-04-29T12:58:07.322Z,16.23
2023-04-29T13:01:49.140Z,14.88
2023-04-29T13:05:31.230Z,13.93
2023-04-29T13:09:18.129Z,14.82
2023-04-29T13:13:00.871Z,16.35
2023-04-29T13:16:42.778Z,14.10
2023-04-29T13:20:24.718Z,12.68
2023-04-29T13:24:07.350Z,12.52
2023-04-29T13:27:49.808Z,14.73
2023-04-29T13:31:32.357Z,11.02
2023-04-29T13:35:14.230Z,12.90
2023-04-29T13:38:56.072Z,10.82
2023-04-29T13:42:45.283Z,11.38
2023-04-29T13:46:32.662Z,11.98
2023-04-29T13:50:50.636Z,11.23
2023-04-29T13:58:43.685Z,10.20
2023-04-29T14:05:48.935Z,7.93
2023-04-29T14:09:30.718Z,9.25
2023-04-29T14:13:12.513Z,8.18
2023-04-29T14:16:54.366Z,7.57
2023-04-29T14:20:36.499Z,6.70
2023-04-29T14:24:18.280Z,6.97
2023-04-29T14:28:00.072Z,7.93
2023-04-29T14:31:42.248Z,6.57
2023-04-29T14:35:24.297Z,8.63
2023-04-29T14:39:06.121Z,10.75
2023-04-29T14:42:47.949Z,9.88
2023-04-29T14:46:31.483Z,13.40
2023-04-29T14:50:13.501Z,12.57
2023-04-29T14:53:55.420Z,10.70
2023-04-29T14:57:37.377Z,10.07
2023-04-29T15:01:19.212Z,12.10
2023-04-29T15:05:04.155Z,11.38
2023-04-29T15:08:47.071Z,9.15
2023-04-29T15:12:28.951Z,9.68
2023-04-29T15:16:10.818Z,8.52
2023-04-29T15:19:52.796Z,8.55
2023-04-29T15:23:34.607Z,11.63
2023-04-29T15:27:16.614Z,12.23
2023-04-29T15:30:59.899Z,13.27
2023-04-29T15:34:42.067Z,13.95
2023-04-29T15:38:23.942Z,14.90
2023-04-29T15:42:06.073Z,13.80
2023-04-29T15:45:47.918Z,13.70
2023-04-29T15:49:31.106Z,15.13
2023-04-29T15:53:12.958Z,15.63
2023-04-29T15:56:55.753Z,15.55
2023-04-29T16:00:38.760Z,18.45
2023-04-29T16:04:20.611Z,17.60
2023-04-29T16:08:02.478Z,17.55
2023-04-29T16:11:44.351Z,16.75
2023-04-29T16:15:27.410Z,21.75
2023-04-29T16:19:09.657Z,15.23
2023-04-29T16:22:51.737Z,18.42
2023-04-29T16:26:33.898Z,28.23
2023-04-29T16:30:15.721Z,16.13
2023-04-29T16:33:58.142Z,14.85
2023-04-29T16:37:40.044Z,16.08
2023-04-29T16:41:26.169Z,14.00
2023-04-29T16:45:08.962Z,13.52
2023-04-29T16:48:52.048Z,14.75
2023-04-29T16:52:34.179Z,15.98
2023-04-29T16:56:16.309Z,16.80
2023-04-29T16:59:58.081Z,18.00
2023-04-29T17:03:40.078Z,17.25
2023-04-29T17:07:22.004Z,15.40
2023-04-29T17:11:05.262Z,20.77
2023-04-29T17:14:48.372Z,14.30
2023-04-29T17:18:30.390Z,16.80
2023-04-29T17:22:12.179Z,18.00
2023-04-29T17:25:55.810Z,18.13
2023-04-29T17:29:37.773Z,18.92
2023-04-29T17:33:19.599Z,17.50
2023-04-29T17:37:01.606Z,17.38
2023-04-29T17:40:43.775Z,17.88
2023-04-29T17:44:25.739Z,17.15
2023-04-29T17:48:07.783Z,18.98
2023-04-29T17:51:49.722Z,18.73
2023-04-29T17:55:31.546Z,19.35
2023-04-29T17:59:13.405Z,20.30
2023-04-29T18:02:55.625Z,23.20
2023-04-29T18:06:37.737Z,21.02
2023-04-29T18:10:19.626Z,21.65
2023-04-29T18:14:01.502Z,25.92
2023-04-29T18:17:44.029Z,20.27
2023-04-29T18:21:27.626Z,21.98
2023-04-29T18:25:11.125Z,18.70
2023-04-29T18:28:52.997Z,18.65
2023-04-29T18:32:35.153Z,21.08
2023-04-29T18:36:17.081Z,18.33
2023-04-29T18:39:58.957Z,19.42
2023-04-29T18:43:41.113Z,17.75
2023-04-29T18:47:23.464Z,20.95
2023-04-29T18:51:06.382Z,21.65
2023-04-29T18:54:48.314Z,21.20
2023-04-29T18:58:30.390Z,19.52
2023-04-29T19:02:12.579Z,20.27
2023-04-29T19:05:54.416Z,19.95
2023-04-29T19:09:36.373Z,22.85
2023-04-29T19:13:18.174Z,16.50
2023-04-29T19:17:00.434Z,19.92
2023-04-29T19:20:42.675Z,17.13
2023-04-29T19:24:24.767Z,21.38
2023-04-29T19:28:06.600Z,18.75
2023-04-29T19:31:48.484Z,17.75
2023-04-29T19:35:30.430Z,21.23
2023-04-29T19:39:12.826Z,19.45
2023-04-29T19:42:54.731Z,24.50
2023-04-29T19:46:36.665Z,20.73
2023-04-29T19:50:18.795Z,24.33
2023-04-29T19:54:01.791Z,23.20
2023-04-29T19:57:43.627Z,21.42
2023-04-29T20:01:25.702Z,19.42
2023-04-29T20:05:10.742Z,23.60
2023-04-29T20:08:52.624Z,20.17
2023-04-29T20:12:35.729Z,20.95
2023-04-29T20:16:17.800Z,21.75
2023-04-29T20:19:59.673Z,19.42
2023-04-29T20:23:41.556Z,20.73
2023-04-29T20:27:23.380Z,27.00
2023-04-29T20:31:05.201Z,26.25
2023-04-29T20:34:47.258Z,23.17
2023-04-29T20:38:29.447Z,22.10
2023-04-29T20:42:11.441Z,25.00
2023-04-29T20:45:53.525Z,26.05
2023-04-29T20:49:35.510Z,25.92
2023-04-29T20:53:17.490Z,23.83
2023-04-29T20:56:59.564Z,23.50
2023-04-29T21:00:41.785Z,27.10
2023-04-29T21:04:23.688Z,21.02
2023-04-29T21:08:06.270Z,21.95
2023-04-29T21:11:48.681Z,22.98
2023-04-29T21:15:30.687Z,20.13
2023-04-29T21:19:12.506Z,19.17
2023-04-29T21:22:54.469Z,20.08
2023-04-29T21:26:36.486Z,20.98
2023-04-29T21:30:18.487Z,23.58
2023-04-29T21:34:00.838Z,18.98
2023-04-29T21:37:42.707Z,20.65
2023-04-29T21:41:27.491Z,19.38
2023-04-29T21:45:09.916Z,21.23
2023-04-29T21:48:52.004Z,18.20
2023-04-29T21:52:35.271Z,19.75
2023-04-29T21:56:17.266Z,23.58
2023-04-29T21:59:59.126Z,19.80
2023-04-29T22:03:40.968Z,18.33
2023-04-29T22:07:23.400Z,19.15
2023-04-29T22:11:05.244Z,17.75
2023-04-29T22:14:47.205Z,17.35
2023-04-29T22:18:29.018Z,15.75
2023-04-29T22:22:10.823Z,15.13
2023-04-29T22:25:52.620Z,16.80
2023-04-29T22:29:34.465Z,15.15
2023-04-29T22:33:16.534Z,16.83
2023-04-29T22:36:58.546Z,17.88
2023-04-29T22:40:41.067Z,14.90
2023-04-29T22:44:22.916Z,15.05
2023-04-29T22:48:05.082Z,18.23
2023-04-29T22:51:46.920Z,19.52
2023-04-29T22:55:28.980Z,15.98
2023-04-29T22:59:10.997Z,19.42
2023-04-29T23:02:53.553Z,14.13
2023-04-29T23:06:35.680Z,17.23
2023-04-29T23:10:17.484Z,14.82
2023-04-29T23:13:59.438Z,19.55
2023-04-29T23:17:41.399Z,16.23
2023-04-29T23:21:23.254Z,19.98
2023-04-29T23:25:06.869Z,17.00
2023-04-29T23:28:48.835Z,18.67
2023-04-29T23:32:31.044Z,16.85
2023-04-29T23:36:12.891Z,18.52
2023-04-29T23:39:56.172Z,18.17
2023-04-29T23:43:39.693Z,16.10
2023-04-29T23:47:21.549Z,20.48
2023-04-29T23:51:03.381Z,18.08
2023-04-29T23:54:45.247Z,18.85
2023-04-29T23:58:27.185Z,21.75
